Time;durP1;ratioP1;P1;durP2;ratioP2;P2;SDS_P1;SDS_P2;PMS_P1;PMS_P2;Temp;Humidity;BMP_temperature;BMP_pressure;BME280_temperature;BME280_humidity;BME280_pressure;Samples;Min_cycle;Max_cycle;Signal;HPM_P1;HPM_P2
2022/03/06 00:02:14;;;;;;;16.33;8.90;;;;;;;-0.30;57.24;92451.13;5038813;28;20041;-90
2022/03/06 00:08:28;;;;;;;19.50;8.15;;;;;;;-0.18;56.81;92464.06;5050070;28;20050;-90
2022/03/06 00:15:18;;;;;;;;;;;;;;;;;;;;;
2022/03/06 00:18:15;;;;;;;20.30;9.38;;;;;;;-0.22;57.89;92452.63;5059039;28;20079;-90
2022/03/06 00:20:58;;;;;;;;;;;;;;;;;;;;;
2022/03/06 00:24:07;;;;;;;15.02;7.93;;;;;;;-0.42;58.24;92416.91;5073578;28;20556;-90
2022/03/06 00:26:59;;;;;;;;;;;;;;;;;;;;;
2022/03/06 00:30:07;;;;;;;18.77;9.10;;;;;;;-0.41;57.90;92428.75;5054664;28;20427;-90
2022/03/06 00:32:52;;;;;;;17.02;8.95;;;;;;;-0.50;58.07;92424.94;5055235;28;20075;-91
2022/03/06 00:35:49;;;;;;;20.13;8.93;;;;;;;-0.04;57.22;92468.00;5022939;28;20522;-90
2022/03/06 00:38:37;;;;;;;;;;;;;;;;;;;;;
2022/03/06 00:41:29;;;;;;;14.27;7.78;;;;;;;-0.46;56.89;92426.06;5047763;28;20036;-90
2022/03/06 00:44:25;;;;;;;12.95;7.00;;;;;;;-0.30;56.89;92458.84;5040541;28;20052;-90
2022/03/06 00:47:18;;;;;;;15.85;7.72;;;;;;;0.01;56.89;92493.06;5069022;28;20473;-90
2022/03/06 00:50:15;;;;;;;18.20;8.73;;;;;;;-0.22;57.29;92471.41;5040692;28;20122;-91
2022/03/06 00:52:52;;;;;;;14.63;7.80;;;;;;;-0.53;57.79;92451.88;5022382;28;20091;-91
2022/03/06 00:55:43;;;;;;;15.75;8.13;;;;;;;-0.56;58.20;92448.94;5030100;28;20087;-91
2022/03/06 00:58:26;;;;;;;11.65;6.05;;;;;;;-0.34;57.96;92460.28;5031901;28;20053;-90
2022/03/06 01:01:56;;;;;;;;;;;;;;;;;;;;;
2022/03/06 01:05:00;;;;;;;17.42;8.40;;;;;;;-0.74;58.89;92444.66;5052423;28;20041;-90
2022/03/06 01:08:11;;;;;;;19.55;8.05;;;;;;;-0.92;59.02;92430.06;5040773;28;20047;-91
2022/03/06 01:11:03;;;;;;;7.90;4.93;;;;;;;-0.70;58.60;92462.00;5042362;28;20048;-90
2022/03/06 01:17:10;;;;;;;15.45;7.60;;;;;;;-0.81;58.96;92462.72;5054853;28;20490;-90
2022/03/06 01:20:22;;;;;;;;;;;;;;;;;;;;;
2022/03/06 01:22:50;;;;;;;12.70;6.07;;;;;;;-1.16;57.73;92424.78;5054327;28;20063;-90
2022/03/06 01:25:41;;;;;;;;;;;;;;;;;;;;;
2022/03/06 01:28:25;;;;;;;10.25;5.18;;;;;;;-1.22;57.01;92417.94;5036106;28;20040;-90
2022/03/06 01:31:32;;;;;;;10.50;5.60;;;;;;;-1.23;56.91;92413.03;5044587;28;20137;-90
2022/03/06 01:35:10;;;;;;;15.77;5.68;;;;;;;-1.00;57.33;92461.19;5041658;28;20174;-91
2022/03/06 01:37:55;;;;;;;;;;;;;;;;;;;;;
2022/03/06 01:40:47;;;;;;;8.20;4.72;;;;;;;-1.11;56.85;92447.25;5066455;28;20288;-90
2022/03/06 01:43:26;;;;;;;11.50;4.30;;;;;;;-1.20;56.99;92431.34;5040641;28;20051;-92
2022/03/06 01:46:13;;;;;;;12.70;5.60;;;;;;;-1.33;57.29;92416.91;5036286;28;20127;-92
2022/03/06 01:48:46;;;;;;;9.07;4.95;;;;;;;-1.31;57.81;92417.44;5049999;28;20037;-90
2022/03/06 01:51:51;;;;;;;11.13;5.50;;;;;;;-0.86;57.93;92486.50;5040655;28;20498;-91
2022/03/06 01:54:39;;;;;;;;;;;;;;;;;;;;;
2022/03/06 01:57:50;;;;;;;8.80;4.53;;;;;;;-1.20;57.23;92410.81;5059044;28;20037;-91
2022/03/06 02:00:21;;;;;;;9.68;4.60;;;;;;;-0.95;57.19;92449.22;5043811;28;20055;-90
2022/03/06 02:03:17;;;;;;;10.00;4.82;;;;;;;-1.14;56.90;92401.47;5038187;28;20044;-89
2022/03/06 02:06:04;;;;;;;11.68;4.82;;;;;;;-0.95;58.04;92438.19;5065960;28;20048;-90
2022/03/06 02:09:16;;;;;;;12.48;6.07;;;;;;;-1.34;58.08;92394.00;5029118;28;20025;-90
2022/03/06 02:12:29;;;;;;;6.50;4.20;;;;;;;-1.12;57.41;92391.75;5057764;28;20822;-91
2022/03/06 02:15:36;;;;;;;;;;;;;;;;;;;;;
2022/03/06 02:18:36;;;;;;;;;;;;;;;;;;;;;
2022/03/06 02:21:36;;;;;;;7.82;4.53;;;;;;;-0.91;57.93;92444.47;5057573;28;20040;-90
2022/03/06 02:24:24;;;;;;;10.93;4.85;;;;;;;-1.28;58.35;92388.00;5024018;28;20513;-89
2022/03/06 02:27:21;;;;;;;;;;;;;;;;;;;;;
2022/03/06 02:30:50;;;;;;;;;;;;;;;;;;;;;
2022/03/06 02:33:36;;;;;;;12.57;5.25;;;;;;;-1.40;58.82;92377.66;5064307;28;20033;-91
2022/03/06 02:36:25;;;;;;;11.20;5.38;;;;;;;-1.33;59.03;92387.84;5020025;28;20037;-91
2022/03/06 02:39:42;;;;;;;;;;;;;;;;;;;;;
2022/03/06 02:42:43;;;;;;;;;;;;;;;;;;;;;
2022/03/06 02:45:45;;;;;;;;;;;;;;;;;;;;;
2022/03/06 02:48:25;;;;;;;;;;;;;;;;;;;;;
2022/03/06 02:51:07;;;;;;;13.43;5.53;;;;;;;-1.33;58.65;92382.72;5054045;28;20112;-90
2022/03/06 02:54:14;;;;;;;;;;;;;;;;;;;;;
2022/03/06 02:57:08;;;;;;;12.75;5.68;;;;;;;-1.34;59.02;92389.63;5077191;28;20094;-90
2022/03/06 03:02:50;;;;;;;12.73;6.47;;;;;;;-1.16;60.13;92427.34;5056660;28;20049;-90
2022/03/06 03:05:55;;;;;;;10.30;5.97;;;;;;;-1.35;60.37;92384.69;5071557;28;20044;-90
2022/03/06 03:11:58;;;;;;;;;;;;;;;;;;;;;
2022/03/06 03:14:31;;;;;;;12.50;5.40;;;;;;;-1.39;61.35;92375.88;5064733;28;20110;-90
2022/03/06 03:17:45;;;;;;;;;;;;;;;;;;;;;
2022/03/06 03:20:17;;;;;;;11.27;6.00;;;;;;;-1.27;61.20;92399.81;5074824;28;20025;-90
2022/03/06 03:23:07;;;;;;;;;;;;;;;;;;;;;
2022/03/06 03:25:53;;;;;;;13.20;6.25;;;;;;;-1.19;62.35;92417.53;5063509;28;20052;-90
2022/03/06 03:29:25;;;;;;;;;;;;;;;;;;;;;
2022/03/06 03:32:04;;;;;;;11.73;5.95;;;;;;;-1.11;62.51;92422.34;5055882;28;20032;-89
2022/03/06 03:38:23;;;;;;;;;;;;;;;;;;;;;
2022/03/06 03:41:25;;;;;;;;;;;;;;;;;;;;;
2022/03/06 03:44:23;;;;;;;;;;;;;;;;;;;;;
2022/03/06 03:47:37;;;;;;;14.65;6.63;;;;;;;-1.06;62.73;92442.25;5059250;28;20044;-89
2022/03/06 03:54:23;;;;;;;;;;;;;;;;;;;;;
2022/03/06 03:57:05;;;;;;;12.57;5.60;;;;;;;-1.38;62.56;92400.56;5056753;28;20073;-90
2022/03/06 03:59:37;;;;;;;11.93;6.10;;;;;;;-1.36;62.38;92412.16;5057761;28;20120;-90
2022/03/06 04:02:26;;;;;;;19.00;5.25;;;;;;;-1.28;62.12;92398.28;5077440;28;20064;-90
2022/03/06 04:05:25;;;;;;;;;;;;;;;;;;;;;
2022/03/06 04:08:15;;;;;;;12.15;5.65;;;;;;;-1.38;61.56;92408.25;5078695;28;20047;-92
2022/03/06 04:11:02;;;;;;;16.17;6.55;;;;;;;-1.44;61.93;92407.34;5042988;28;20048;-91
2022/03/06 04:14:21;;;;;;;;;;;;;;;;;;;;;
2022/03/06 04:17:40;;;;;;;12.70;6.18;;;;;;;-0.96;61.64;92475.16;5076045;28;21083;-90
2022/03/06 04:21:02;;;;;;;;;;;;;;;;;;;;;
2022/03/06 04:24:12;;;;;;;11.75;5.85;;;;;;;-1.03;61.49;92461.63;5095107;28;20036;-90
2022/03/06 04:27:08;;;;;;;13.67;5.70;;;;;;;-1.33;60.79;92416.09;5061146;28;20048;-89
2022/03/06 04:30:37;;;;;;;;;;;;;;;;;;;;;
2022/03/06 04:33:51;;;;;;;10.27;5.35;;;;;;;-1.03;60.87;92464.97;5067405;28;20071;-91
2022/03/06 04:37:12;;;;;;;;;;;;;;;;;;;;;
2022/03/06 04:40:28;;;;;;;12.32;5.60;;;;;;;-1.28;61.02;92421.38;5077807;28;20034;-89
2022/03/06 04:43:36;;;;;;;13.45;5.38;;;;;;;-0.97;61.47;92476.16;5041754;28;20059;-90
2022/03/06 04:46:55;;;;;;;12.07;5.82;;;;;;;-1.43;61.19;92405.56;5068281;28;20074;-93
2022/03/06 04:50:14;;;;;;;13.60;6.28;;;;;;;-0.97;61.30;92471.00;5058401;28;20045;-90
2022/03/06 04:53:30;;;;;;;15.98;5.85;;;;;;;-1.38;60.67;92405.69;5058378;28;20033;-91
2022/03/06 04:57:10;;;;;;;10.75;5.63;;;;;;;-1.09;61.35;92437.56;5072437;28;20044;-91
2022/03/06 05:00:06;;;;;;;13.02;5.50;;;;;;;-0.98;61.20;92465.09;5056898;28;20051;-90
2022/03/06 05:03:29;;;;;;;;;;;;;;;;;;;;;
2022/03/06 05:10:19;;;;;;;12.07;6.30;;;;;;;-0.94;60.90;92455.97;5048089;28;20048;-91
2022/03/06 05:13:33;;;;;;;;;;;;;;;;;;;;;
2022/03/06 05:17:10;;;;;;;11.65;5.82;;;;;;;-1.50;61.83;92397.91;5084747;28;20581;-91
2022/03/06 05:20:04;;;;;;;12.48;5.55;;;;;;;-1.27;61.51;92428.84;5056660;28;20039;-90
2022/03/06 05:23:32;;;;;;;10.97;5.60;;;;;;;-1.47;61.72;92407.75;5074299;28;20485;-89
2022/03/06 05:26:26;;;;;;;;;;;;;;;;;;;;;
2022/03/06 05:29:13;;;;;;;;;;;;;;;;;;;;;
2022/03/06 05:32:12;;;;;;;12.15;5.68;;;;;;;-1.53;61.31;92404.28;5095131;28;20032;-90
2022/03/06 05:35:11;;;;;;;;;;;;;;;;;;;;;
2022/03/06 05:38:24;;;;;;;10.57;5.35;;;;;;;-1.61;61.76;92398.63;5069207;28;20039;-90
2022/03/06 05:41:25;;;;;;;;;;;;;;;;;;;;;
2022/03/06 05:44:48;;;;;;;14.20;5.63;;;;;;;-1.74;61.69;92399.53;5076230;28;20040;-89
2022/03/06 05:48:11;;;;;;;16.15;5.63;;;;;;;-1.66;61.52;92408.78;5070686;28;20040;-89
2022/03/06 05:51:04;;;;;;;12.90;6.53;;;;;;;-1.79;62.03;92394.28;5060944;28;20678;-90
2022/03/06 05:54:11;;;;;;;;;;;;;;;;;;;;;
2022/03/06 05:57:06;;;;;;;10.50;6.03;;;;;;;-1.70;63.11;92409.19;5072114;28;20056;-90
2022/03/06 06:00:36;;;;;;;13.63;5.88;;;;;;;-1.83;63.15;92400.81;5078361;28;20100;-90
2022/03/06 06:03:50;;;;;;;11.93;5.40;;;;;;;-1.55;63.50;92464.53;5073961;28;20076;-90
2022/03/06 06:07:07;;;;;;;;;;;;;;;;;;;;;
2022/03/06 06:09:48;;;;;;;11.90;6.15;;;;;;;-2.01;63.64;92399.78;5077820;28;20062;-89
2022/03/06 06:16:30;;;;;;;;;;;;;;;;;;;;;
2022/03/06 06:19:34;;;;;;;13.27;5.57;;;;;;;-1.94;63.89;92410.78;5092520;28;20070;-90
2022/03/06 06:22:37;;;;;;;;;;;;;;;;;;;;;
2022/03/06 06:25:30;;;;;;;12.40;5.72;;;;;;;-2.08;64.04;92399.06;5059954;28;20033;-88
2022/03/06 06:28:08;;;;;;;13.23;5.85;;;;;;;-1.47;62.31;92397.47;5069617;28;20118;-86
2022/03/06 06:31:04;;;;;;;11.27;5.78;;;;;;;-0.61;59.88;92412.81;5075494;28;20136;-87
2022/03/06 06:33:37;;;;;;;14.65;6.00;;;;;;;0.26;57.64;92438.03;5036714;28;20130;-86
2022/03/06 06:36:28;;;;;;;11.60;5.65;;;;;;;-0.17;57.60;92392.78;5072861;28;20082;-87
2022/03/06 06:41:59;;;;;;;15.15;6.60;;;;;;;2.03;51.89;92405.47;5081679;28;20052;-86
2022/03/06 06:44:56;;;;;;;;;;;;;;;;;;;;;
2022/03/06 06:47:51;;;;;;;;;;;;;;;;;;;;;
2022/03/06 06:50:41;;;;;;;11.98;6.05;;;;;;;0.52;55.22;92411.81;5054724;28;20044;-87
2022/03/06 06:53:42;;;;;;;;;;;;;;;;;;;;;
2022/03/06 06:56:20;;;;;;;12.48;6.05;;;;;;;1.55;53.15;92427.38;5045859;28;20052;-87
2022/03/06 06:59:23;;;;;;;11.43;5.97;;;;;;;3.88;47.05;92439.47;5062010;28;20040;-87
2022/03/06 07:02:07;;;;;;;15.70;6.22;;;;;;;5.36;42.95;92418.81;5052681;28;20090;-87
2022/03/06 07:04:55;;;;;;;11.88;6.10;;;;;;;4.87;43.36;92439.13;5062383;28;20031;-87
2022/03/06 07:07:28;;;;;;;14.57;6.15;;;;;;;4.07;44.93;92449.47;5088279;28;20110;-86
2022/03/06 07:10:18;;;;;;;14.18;6.22;;;;;;;3.85;45.23;92429.59;5047037;28;20493;-91
2022/03/06 07:13:46;;;;;;;;;;;;;;;;;;;;;
2022/03/06 07:16:45;;;;;;;;;;;;;;;;;;;;;
2022/03/06 07:19:50;;;;;;;;;;;;;;;;;;;;;
2022/03/06 07:25:57;;;;;;;10.38;6.15;;;;;;;10.50;31.19;92428.38;5046405;28;20048;-90
2022/03/06 07:28:43;;;;;;;;;;;;;;;;;;;;;
2022/03/06 07:31:34;;;;;;;12.68;6.72;;;;;;;10.84;30.80;92466.56;5092948;28;20032;-92
2022/03/06 07:34:07;;;;;;;13.23;6.75;;;;;;;7.69;34.97;92438.06;5079225;28;20499;-91
2022/03/06 07:37:02;;;;;;;12.65;6.82;;;;;;;7.24;36.03;92439.84;5063233;28;20039;-90
2022/03/06 07:40:03;;;;;;;14.52;7.20;;;;;;;3.81;43.98;92500.25;5070689;28;20040;-92
2022/03/06 07:49:07;;;;;;;14.00;6.97;;;;;;;1.60;49.58;92462.81;5064845;28;20083;-86
2022/03/06 07:51:38;;;;;;;17.25;6.68;;;;;;;1.44;50.54;92462.56;5066271;28;20041;-86
2022/03/06 07:54:14;;;;;;;12.85;6.75;;;;;;;1.29;52.09;92513.09;5039040;28;20042;-84
2022/03/06 07:56:45;;;;;;;12.75;5.75;;;;;;;1.08;52.38;92488.66;5080373;28;20094;-84
2022/03/06 07:59:13;;;;;;;13.68;6.20;;;;;;;0.82;53.42;92480.44;5094831;28;20040;-84
2022/03/06 08:01:39;;;;;;;16.83;6.05;;;;;;;1.24;54.01;92529.25;5082053;28;20028;-85
2022/03/06 08:04:07;;;;;;;9.95;5.65;;;;;;;0.88;53.82;92476.97;5068573;28;20075;-84
2022/03/06 08:06:46;;;;;;;12.27;6.22;;;;;;;1.10;54.01;92530.47;5038350;28;20096;-85
2022/03/06 08:09:24;;;;;;;11.80;6.70;;;;;;;0.62;55.24;92530.50;5077640;28;20071;-84
2022/03/06 08:11:55;;;;;;;15.07;5.90;;;;;;;0.49;55.14;92468.91;5046386;28;20027;-85
2022/03/06 08:14:30;;;;;;;13.45;6.20;;;;;;;0.81;54.09;92491.72;5035286;28;20485;-84
2022/03/06 08:17:02;;;;;;;14.43;5.85;;;;;;;1.14;53.48;92490.34;5092888;28;20039;-84
2022/03/06 08:19:30;;;;;;;13.95;6.10;;;;;;;1.39;52.18;92483.09;5073869;28;20039;-88
2022/03/06 08:21:58;;;;;;;11.98;6.05;;;;;;;1.06;54.08;92516.47;5057677;28;20026;-85
2022/03/06 08:24:32;;;;;;;14.82;5.97;;;;;;;1.27;53.74;92515.88;5055934;28;20414;-84
2022/03/06 08:27:04;;;;;;;13.48;6.70;;;;;;;1.30;53.02;92488.84;5057701;28;20050;-84
2022/03/06 08:29:30;;;;;;;14.15;6.38;;;;;;;1.60;51.55;92496.34;5060363;28;20051;-89
2022/03/06 08:31:57;;;;;;;11.52;6.35;;;;;;;1.06;54.43;92547.41;5076415;28;20043;-84
2022/03/06 08:34:23;;;;;;;17.20;6.57;;;;;;;1.68;51.08;92552.78;5058687;28;20389;-85
2022/03/06 08:36:52;;;;;;;13.07;6.93;;;;;;;1.75;48.09;92530.19;5050882;28;20063;-85
2022/03/06 08:39:17;;;;;;;12.95;5.72;;;;;;;2.20;48.29;92538.97;5075406;28;20032;-84
2022/03/06 08:41:43;;;;;;;18.55;7.15;;;;;;;1.94;51.01;92535.19;5058924;28;20044;-84
2022/03/06 08:44:09;;;;;;;17.13;6.85;;;;;;;1.64;48.86;92549.06;5055583;28;20074;-84
2022/03/06 08:46:34;;;;;;;14.07;6.78;;;;;;;1.92;47.37;92534.63;5055160;28;20043;-84
2022/03/06 08:49:00;;;;;;;15.55;6.97;;;;;;;2.54;46.72;92528.66;5026644;28;20032;-84
2022/03/06 08:51:25;;;;;;;12.10;6.20;;;;;;;2.15;48.57;92511.25;5058246;28;20055;-84
2022/03/06 08:53:51;;;;;;;15.60;7.13;;;;;;;2.68;45.76;92524.75;5058171;28;20024;-84
2022/03/06 08:56:16;;;;;;;16.50;6.47;;;;;;;3.65;44.04;92504.50;5075122;28;20105;-85
2022/03/06 08:58:42;;;;;;;15.43;6.15;;;;;;;4.01;43.45;92520.38;5088084;28;20520;-84
2022/03/06 09:01:07;;;;;;;14.20;6.43;;;;;;;4.00;42.70;92524.00;5068954;28;20040;-83
2022/03/06 09:03:33;;;;;;;11.07;5.80;;;;;;;2.42;47.12;92506.25;5061980;28;20056;-85
2022/03/06 09:05:59;;;;;;;6.15;3.83;;;;;;;2.94;47.03;92519.94;5064855;28;20416;-84
2022/03/06 09:08:24;;;;;;;11.40;5.80;;;;;;;2.97;45.66;92509.88;5056848;28;20089;-84
2022/03/06 09:10:50;;;;;;;13.48;6.95;;;;;;;2.81;47.01;92518.44;5074651;28;20031;-84
2022/03/06 09:13:15;;;;;;;14.70;6.25;;;;;;;2.82;45.73;92505.28;5050681;28;20051;-84
2022/03/06 09:15:41;;;;;;;7.70;3.28;;;;;;;2.45;45.91;92523.88;5058351;28;20067;-85
2022/03/06 09:18:06;;;;;;;13.13;7.03;;;;;;;2.07;46.67;92514.22;5057174;28;20040;-86
2022/03/06 09:20:32;;;;;;;20.17;7.63;;;;;;;2.85;46.84;92504.03;5090740;28;20040;-83
2022/03/06 09:22:58;;;;;;;12.88;6.25;;;;;;;2.85;46.67;92516.97;5051432;28;20052;-84
2022/03/06 09:25:23;;;;;;;14.00;6.40;;;;;;;1.92;47.82;92490.75;5054130;28;20032;-88
2022/03/06 09:27:49;;;;;;;13.38;6.57;;;;;;;1.60;49.50;92509.25;5079760;28;20032;-83
2022/03/06 09:30:15;;;;;;;11.85;6.10;;;;;;;1.47;49.55;92512.13;5051093;28;20105;-85
2022/03/06 09:32:40;;;;;;;12.98;6.55;;;;;;;1.78;48.80;92521.19;5055271;28;20558;-84
2022/03/06 09:35:07;;;;;;;10.73;6.05;;;;;;;1.32;49.38;92518.56;5073140;28;20525;-84
2022/03/06 09:37:34;;;;;;;12.77;6.32;;;;;;;1.48;50.23;92511.09;5058310;28;20044;-89
2022/03/06 09:40:01;;;;;;;13.88;6.43;;;;;;;1.55;50.32;92506.59;5057309;28;20105;-84
2022/03/06 09:42:26;;;;;;;16.02;7.18;;;;;;;1.47;49.81;92519.88;5074281;28;20064;-84
2022/03/06 09:44:52;;;;;;;11.77;6.43;;;;;;;1.21;50.01;92491.00;5055585;28;20055;-83
2022/03/06 09:47:18;;;;;;;13.45;7.10;;;;;;;1.17;49.91;92519.06;5039738;28;20032;-84
2022/03/06 09:49:45;;;;;;;10.95;6.22;;;;;;;1.62;49.15;92508.03;5074176;28;20028;-82
2022/03/06 09:52:11;;;;;;;14.57;6.47;;;;;;;1.35;50.08;92519.88;5059722;28;20036;-85
2022/03/06 09:54:37;;;;;;;10.75;6.43;;;;;;;1.73;49.34;92521.88;5088250;28;20044;-85
2022/03/06 09:57:04;;;;;;;12.43;6.75;;;;;;;1.55;49.63;92520.28;5074997;28;20049;-84
2022/03/06 09:59:31;;;;;;;14.52;6.32;;;;;;;1.49;49.74;92518.63;5053408;28;20040;-86
2022/03/06 10:02:05;;;;;;;12.98;5.55;;;;;;;1.42;49.24;92513.59;5057872;28;20051;-86
2022/03/06 10:04:34;;;;;;;14.25;7.20;;;;;;;1.45;50.29;92522.69;5059168;28;20059;-85
2022/03/06 10:07:09;;;;;;;13.90;6.53;;;;;;;2.06;48.78;92520.41;5053966;28;20040;-85
2022/03/06 10:09:50;;;;;;;13.93;6.25;;;;;;;2.12;49.08;92514.31;5091791;28;20090;-85
2022/03/06 10:12:30;;;;;;;14.55;7.13;;;;;;;3.39;46.18;92517.13;5092144;28;20046;-85
2022/03/06 10:15:02;;;;;;;13.90;6.72;;;;;;;4.16;44.60;92502.38;5063153;28;20031;-85
2022/03/06 10:17:30;;;;;;;13.38;7.13;;;;;;;4.21;44.00;92483.50;5071555;28;20036;-86
2022/03/06 10:19:56;;;;;;;17.00;7.10;;;;;;;4.20;43.49;92498.28;5090809;28;20039;-85
2022/03/06 10:22:29;;;;;;;12.88;6.97;;;;;;;3.88;44.49;92506.78;5051829;28;20029;-86
2022/03/06 10:25:01;;;;;;;15.98;7.57;;;;;;;3.99;43.76;92502.50;5052130;28;20039;-85
2022/03/06 10:27:45;;;;;;;16.40;4.75;;;;;;;3.72;43.42;92499.91;5071983;28;20492;-85
2022/03/06 10:30:31;;;;;;;10.90;6.10;;;;;;;3.81;43.86;92464.00;5054624;28;20043;-85
2022/03/06 10:33:07;;;;;;;15.52;5.85;;;;;;;3.83;44.00;92483.44;5066740;28;20429;-86
2022/03/06 10:35:47;;;;;;;9.70;5.30;;;;;;;3.51;43.96;92483.34;5063500;28;20032;-86
2022/03/06 10:38:20;;;;;;;14.60;7.45;;;;;;;2.78;44.98;92456.88;5056269;28;20127;-85
2022/03/06 10:40:47;;;;;;;14.60;7.27;;;;;;;2.16;45.16;92419.06;5051420;28;20035;-86
2022/03/06 10:43:17;;;;;;;11.93;6.65;;;;;;;2.67;45.70;92443.81;5071434;28;20039;-85
2022/03/06 10:45:45;;;;;;;13.82;7.18;;;;;;;2.81;45.96;92477.09;5059034;28;20024;-84
2022/03/06 10:48:11;;;;;;;13.00;6.72;;;;;;;2.05;46.98;92424.09;5051960;28;20033;-84
2022/03/06 10:50:40;;;;;;;10.20;5.47;;;;;;;2.28;46.27;92451.53;5040136;28;20055;-86
2022/03/06 10:53:22;;;;;;;17.25;7.22;;;;;;;1.90;46.80;92420.50;5045921;28;20032;-84
2022/03/06 10:55:48;;;;;;;12.67;6.50;;;;;;;2.17;46.51;92439.50;5073240;28;20024;-84
2022/03/06 10:58:14;;;;;;;12.90;6.70;;;;;;;2.05;46.39;92415.56;5072149;28;20778;-84
2022/03/06 11:00:41;;;;;;;13.52;7.35;;;;;;;2.01;46.29;92423.00;5039542;28;20032;-88
2022/03/06 11:03:07;;;;;;;15.35;6.97;;;;;;;1.85;46.34;92431.50;5050164;28;20056;-86
2022/03/06 11:05:33;;;;;;;16.23;7.53;;;;;;;1.90;46.48;92416.09;5052228;28;20131;-85
2022/03/06 11:08:13;;;;;;;12.35;6.53;;;;;;;2.53;46.09;92450.34;5051698;28;20123;-90
2022/03/06 11:11:21;;;;;;;15.25;6.82;;;;;;;2.37;45.88;92402.06;5093282;28;20034;-92
2022/03/06 11:14:16;;;;;;;;;;;;;;;;;;;;;
2022/03/06 11:20:24;;;;;;;17.60;8.68;;;;;;;2.04;45.87;92401.06;5054538;28;20048;-91
2022/03/06 11:30:20;;;;;;;;;;;;;;;2.88;45.66;92446.66;5091922;28;20082;-87
2022/03/06 11:33:35;;;;;;;17.02;6.30;;;;;;;3.38;44.01;92448.31;5058378;28;19916;-89
2022/03/06 11:36:37;;;;;;;13.35;6.90;;;;;;;3.45;43.48;92378.25;5055035;28;20036;-86
2022/03/06 11:40:24;;;;;;;14.25;7.60;;;;;;;3.69;42.12;92433.06;5079183;28;20083;-87
2022/03/06 11:46:54;;;;;;;8.35;4.25;;;;;;;3.49;41.21;92364.56;5057742;28;20050;-87
2022/03/06 11:49:36;;;;;;;13.23;6.93;;;;;;;3.64;42.68;92382.03;5060482;28;20030;-86
2022/03/06 11:52:29;;;;;;;15.23;7.90;;;;;;;3.96;42.54;92386.41;5040438;28;20095;-87
2022/03/06 11:55:36;;;;;;;16.15;8.10;;;;;;;4.38;40.94;92399.41;5055938;28;20040;-87
2022/03/06 11:59:02;;;;;;;16.35;7.90;;;;;;;5.53;39.58;92379.63;5034920;28;20093;-87
2022/03/06 12:01:55;;;;;;;15.05;8.05;;;;;;;4.96;39.31;92341.63;5025624;28;20036;-87
2022/03/06 12:04:54;;;;;;;14.02;6.78;;;;;;;5.48;38.45;92390.03;5056484;28;20477;-86
2022/03/06 12:07:35;;;;;;;18.33;7.68;;;;;;;4.58;40.04;92362.47;5061648;28;20089;-86
2022/03/06 12:10:28;;;;;;;14.00;8.18;;;;;;;3.82;41.93;92388.66;5071974;28;20036;-85
2022/03/06 12:13:00;;;;;;;13.85;7.03;;;;;;;3.18;41.47;92321.31;5052651;28;20096;-86
2022/03/06 12:15:35;;;;;;;19.42;7.93;;;;;;;3.19;41.82;92322.88;5058989;28;20042;-86
2022/03/06 12:18:18;;;;;;;14.48;7.43;;;;;;;3.26;41.93;92326.81;5033347;28;20085;-86
2022/03/06 12:20:46;;;;;;;13.25;6.97;;;;;;;2.87;42.93;92311.44;5059297;28;20550;-86
2022/03/06 12:23:28;;;;;;;14.90;8.15;;;;;;;2.65;43.63;92321.00;5044289;28;20036;-87
2022/03/06 12:26:00;;;;;;;13.25;6.35;;;;;;;2.39;44.00;92312.97;5052957;28;20048;-88
2022/03/06 12:28:47;;;;;;;15.35;7.70;;;;;;;2.26;44.65;92314.09;5042333;28;20034;-86
2022/03/06 12:31:37;;;;;;;15.43;7.95;;;;;;;2.48;43.68;92342.53;5051328;28;20041;-86
2022/03/06 12:34:47;;;;;;;12.38;6.80;;;;;;;2.99;43.97;92370.78;5048200;28;20032;-86
2022/03/06 12:37:24;;;;;;;15.23;7.57;;;;;;;2.69;43.61;92330.63;5060048;28;20032;-86
2022/03/06 12:40:03;;;;;;;14.95;6.88;;;;;;;2.28;43.42;92285.44;5051271;28;20060;-86
2022/03/06 12:42:35;;;;;;;16.83;8.02;;;;;;;2.63;43.98;92292.81;5054186;28;20028;-86
2022/03/06 12:45:06;;;;;;;14.15;7.00;;;;;;;2.41;43.77;92282.50;5092885;28;20020;-87
2022/03/06 12:47:39;;;;;;;16.05;7.50;;;;;;;2.59;43.27;92281.41;5076148;28;20044;-86
2022/03/06 12:50:07;;;;;;;16.08;7.78;;;;;;;2.80;43.25;92304.91;5093829;28;20032;-85
2022/03/06 12:52:33;;;;;;;15.90;7.80;;;;;;;2.54;43.41;92286.50;5059897;28;20546;-85
2022/03/06 12:55:05;;;;;;;15.32;8.02;;;;;;;2.67;43.67;92293.91;5055165;28;20051;-86
2022/03/06 12:57:43;;;;;;;16.55;7.60;;;;;;;2.50;44.15;92275.13;5074470;28;20028;-87
2022/03/06 13:00:19;;;;;;;14.52;7.20;;;;;;;2.59;43.80;92324.56;5093994;28;20112;-85
2022/03/06 13:02:48;;;;;;;12.82;6.70;;;;;;;2.32;44.63;92322.72;5059333;28;20475;-86
2022/03/06 13:05:16;;;;;;;14.27;6.63;;;;;;;2.61;44.45;92328.50;5074204;28;20397;-86
2022/03/06 13:07:44;;;;;;;13.93;6.85;;;;;;;2.23;44.14;92249.22;5059219;28;20032;-85
2022/03/06 13:10:14;;;;;;;12.98;5.82;;;;;;;3.07;44.01;92318.63;5056253;28;20047;-85
2022/03/06 13:12:54;;;;;;;14.38;7.10;;;;;;;2.92;43.54;92267.53;5091390;28;20123;-85
2022/03/06 13:15:24;;;;;;;15.95;7.80;;;;;;;3.50;42.20;92316.94;5056011;28;20033;-86
2022/03/06 13:18:15;;;;;;;15.63;8.13;;;;;;;3.59;42.94;92251.78;5071945;28;20050;-86
2022/03/06 13:20:56;;;;;;;15.60;7.40;;;;;;;4.17;41.52;92247.47;5041952;28;20075;-87
2022/03/06 13:24:03;;;;;;;;;;;;;;;;;;;;;
2022/03/06 13:26:32;;;;;;;13.63;7.22;;;;;;;3.80;40.94;92234.56;5075600;28;20056;-89
2022/03/06 13:29:28;;;;;;;21.63;9.57;;;;;;;3.86;41.21;92233.56;5049874;28;20040;-88
2022/03/06 13:32:30;;;;;;;;;;;;;;;;;;;;;
2022/03/06 13:35:36;;;;;;;19.85;9.15;;;;;;;4.26;40.85;92235.59;5092684;28;20384;-87
2022/03/06 13:38:12;;;;;;;14.35;7.80;;;;;;;4.85;39.65;92282.97;5063155;28;20036;-88
2022/03/06 13:40:41;;;;;;;16.35;7.82;;;;;;;3.71;40.98;92222.06;5072840;28;20114;-87
2022/03/06 13:43:09;;;;;;;17.08;7.93;;;;;;;5.35;39.89;92276.31;5058118;28;20047;-88
2022/03/06 13:45:45;;;;;;;15.00;7.55;;;;;;;5.11;38.47;92219.72;5068567;28;20030;-86
2022/03/06 13:48:34;;;;;;;10.93;6.22;;;;;;;5.17;39.03;92246.44;5077872;28;20042;-88
2022/03/06 13:51:44;;;;;;;13.00;6.93;;;;;;;4.16;39.71;92207.03;5071996;28;20043;-86
2022/03/06 13:54:15;;;;;;;13.18;7.80;;;;;;;4.18;39.70;92204.97;5066570;28;20432;-87
2022/03/06 13:56:45;;;;;;;18.40;8.60;;;;;;;4.12;40.28;92208.56;5061963;28;20036;-86
2022/03/06 13:59:28;;;;;;;15.05;7.20;;;;;;;3.84;40.63;92214.91;5072190;28;20123;-87
2022/03/06 14:02:06;;;;;;;14.63;6.72;;;;;;;4.39;40.07;92223.97;5057123;28;20047;-91
2022/03/06 14:04:36;;;;;;;15.93;8.60;;;;;;;4.64;40.03;92215.50;5073394;28;20106;-87
2022/03/06 14:07:04;;;;;;;13.50;8.20;;;;;;;5.20;39.39;92254.50;5060048;28;20043;-86
2022/03/06 14:09:32;;;;;;;13.13;7.57;;;;;;;5.10;38.71;92235.53;5066470;28;20028;-86
2022/03/06 14:12:09;;;;;;;16.42;8.32;;;;;;;4.84;39.27;92243.28;5083585;28;20146;-86
2022/03/06 14:14:38;;;;;;;14.80;7.60;;;;;;;4.89;38.84;92201.00;5093460;28;20035;-85
2022/03/06 14:17:06;;;;;;;16.67;8.23;;;;;;;5.74;38.45;92249.81;5074981;28;20016;-88
2022/03/06 14:19:32;;;;;;;15.73;6.97;;;;;;;5.09;38.60;92255.53;5092667;28;20043;-87
2022/03/06 14:21:58;;;;;;;15.13;8.13;;;;;;;4.83;38.75;92248.72;5074478;28;20032;-86
2022/03/06 14:24:23;;;;;;;13.80;7.57;;;;;;;5.41;38.23;92250.09;5043270;28;20470;-86
2022/03/06 14:26:52;;;;;;;10.73;6.07;;;;;;;4.51;39.72;92234.88;5022501;28;20036;-87
2022/03/06 14:29:23;;;;;;;12.48;6.82;;;;;;;5.03;39.13;92246.16;5050204;28;20489;-87
2022/03/06 14:31:53;;;;;;;17.20;8.57;;;;;;;5.70;38.69;92243.59;5073617;28;20118;-86
2022/03/06 14:34:21;;;;;;;20.00;8.88;;;;;;;6.29;36.68;92229.19;5061148;28;20032;-86
2022/03/06 14:36:48;;;;;;;19.05;8.27;;;;;;;5.79;36.97;92216.81;5073066;28;20025;-86
2022/03/06 14:39:14;;;;;;;14.93;8.02;;;;;;;5.76;37.32;92237.34;5055183;28;20394;-87
2022/03/06 14:41:41;;;;;;;14.60;8.30;;;;;;;5.58;37.52;92229.06;5070341;28;20071;-87
2022/03/06 14:44:08;;;;;;;15.30;8.27;;;;;;;5.37;39.06;92241.25;5091915;28;20767;-86
2022/03/06 14:46:33;;;;;;;17.27;7.80;;;;;;;5.61;37.48;92238.91;5074166;28;20032;-85
2022/03/06 14:48:59;;;;;;;15.23;7.45;;;;;;;5.52;38.25;92240.47;5092032;28;20031;-88
2022/03/06 14:51:25;;;;;;;13.95;7.55;;;;;;;5.41;38.33;92236.34;5074945;28;20040;-87
2022/03/06 14:53:52;;;;;;;16.83;8.55;;;;;;;5.32;38.28;92225.69;5043190;28;20031;-89
2022/03/06 14:56:19;;;;;;;16.45;8.38;;;;;;;4.90;39.13;92225.91;5072194;28;20494;-85
2022/03/06 14:58:46;;;;;;;13.27;7.72;;;;;;;4.85;39.13;92212.94;5026215;28;20068;-85
2022/03/06 15:01:15;;;;;;;15.30;7.88;;;;;;;5.21;38.92;92224.13;5071854;28;20422;-85
2022/03/06 15:03:41;;;;;;;19.05;7.57;;;;;;;5.04;39.34;92205.44;5068755;28;20052;-85
2022/03/06 15:06:11;;;;;;;18.65;7.65;;;;;;;5.05;39.44;92223.34;5072986;28;20082;-85
2022/03/06 15:08:37;;;;;;;12.63;6.53;;;;;;;4.65;39.16;92222.22;5052392;28;20033;-87